Time;durP1;ratioP1;P1;durP2;ratioP2;P2;SDS_P1;SDS_P2;PMS_P1;PMS_P2;Temp;Humidity;BMP_temperature;BMP_pressure;BME280_temperature;BME280_humidity;BME280_pressure;Samples;Min_cycle;Max_cycle;Signal;HPM_P1;HPM_P2
2022/04/02 00:01:08;;;;;;;0.82;0.40;;;;;;;;;;5112864;28;20019;-69
2022/04/02 00:03:34;;;;;;;0.95;0.50;;;;;;;;;;5112887;27;20047;-72
2022/04/02 00:06:00;;;;;;;1.52;0.47;;;;;;;;;;5112970;28;20031;-69
2022/04/02 00:08:25;;;;;;;2.75;0.65;;;;;;;;;;5112787;27;20066;-70
2022/04/02 00:10:51;;;;;;;1.73;0.50;;;;;;;;;;5112820;27;20114;-71
2022/04/02 00:13:17;;;;;;;2.13;0.65;;;;;;;;;;5112576;28;20475;-73
2022/04/02 00:15:42;;;;;;;1.08;0.50;;;;;;;;;;5113667;28;20024;-73
2022/04/02 00:18:08;;;;;;;0.82;0.50;;;;;;;;;;5113500;28;20468;-67
2022/04/02 00:20:33;;;;;;;2.40;0.60;;;;;;;;;;5112618;28;20020;-68
2022/04/02 00:25:42;;;;;;;2.85;0.60;;;;;;;;;;5112830;28;20168;-72
2022/04/02 00:28:08;;;;;;;1.13;0.65;;;;;;;;;;5112413;28;20103;-67
2022/04/02 00:30:33;;;;;;;1.58;0.55;;;;;;;;;;5112231;27;20028;-72
2022/04/02 00:32:59;;;;;;;1.15;0.60;;;;;;;;;;5111962;28;20047;-71
2022/04/02 00:35:24;;;;;;;1.17;0.65;;;;;;;;;;5111943;28;20479;-73
2022/04/02 00:37:50;;;;;;;1.13;0.70;;;;;;;;;;5112322;28;20032;-66
2022/04/02 00:40:15;;;;;;;1.50;0.50;;;;;;;;;;5112241;28;20031;-72
2022/04/02 00:42:41;;;;;;;1.27;0.60;;;;;;;;;;5111920;28;20024;-70
2022/04/02 00:45:07;;;;;;;1.95;0.52;;;;;;;;;;5112005;28;20105;-73
2022/04/02 00:47:32;;;;;;;0.65;0.52;;;;;;;;;;5111874;28;20439;-72
2022/04/02 00:49:58;;;;;;;1.42;0.70;;;;;;;;;;5111776;28;20023;-72
2022/04/02 00:52:25;;;;;;;0.85;0.50;;;;;;;;;;5110387;28;20102;-72
2022/04/02 00:54:52;;;;;;;1.23;0.60;;;;;;;;;;5111668;28;20039;-71
2022/04/02 00:57:19;;;;;;;2.15;0.57;;;;;;;;;;5111843;28;20506;-72
2022/04/02 00:59:45;;;;;;;0.80;0.60;;;;;;;;;;5111881;28;20081;-70
2022/04/02 01:02:11;;;;;;;0.90;0.57;;;;;;;;;;5111627;28;20050;-72
2022/04/02 01:04:36;;;;;;;3.08;0.60;;;;;;;;;;5111403;28;20067;-72
2022/04/02 01:07:02;;;;;;;1.05;0.70;;;;;;;;;;5111407;28;20019;-72
2022/04/02 01:09:27;;;;;;;1.15;0.75;;;;;;;;;;5111342;28;20099;-72
2022/04/02 01:11:54;;;;;;;2.15;0.85;;;;;;;;;;5111564;28;20027;-71
2022/04/02 01:14:19;;;;;;;1.30;0.70;;;;;;;;;;5111219;28;20026;-67
2022/04/02 01:16:45;;;;;;;1.65;0.77;;;;;;;;;;5111371;28;20103;-69
2022/04/02 01:19:11;;;;;;;3.92;0.70;;;;;;;;;;5111717;28;20024;-72
2022/04/02 01:21:37;;;;;;;1.05;0.70;;;;;;;;;;5111251;28;20042;-73
2022/04/02 01:24:03;;;;;;;0.90;0.75;;;;;;;;;;5110975;28;20023;-67
2022/04/02 01:26:29;;;;;;;1.45;0.80;;;;;;;;;;5111224;28;20077;-73
2022/04/02 01:28:56;;;;;;;1.23;0.80;;;;;;;;;;5111140;28;20028;-72
2022/04/02 01:31:23;;;;;;;1.80;0.95;;;;;;;;;;5111192;28;20043;-73
2022/04/02 01:33:49;;;;;;;1.95;1.27;;;;;;;;;;5110975;28;20514;-66
2022/04/02 01:36:15;;;;;;;2.85;1.00;;;;;;;;;;5110943;28;20055;-72
2022/04/02 01:38:41;;;;;;;3.83;0.80;;;;;;;;;;5110737;28;20058;-72
2022/04/02 01:41:06;;;;;;;2.35;0.90;;;;;;;;;;5110951;28;20051;-71
2022/04/02 01:43:33;;;;;;;3.08;1.00;;;;;;;;;;5110784;28;20058;-71
2022/04/02 01:45:59;;;;;;;2.88;0.90;;;;;;;;;;5111242;28;20114;-70
2022/04/02 01:48:25;;;;;;;4.93;0.93;;;;;;;;;;5111085;28;20088;-72
2022/04/02 01:50:51;;;;;;;3.95;1.02;;;;;;;;;;5111079;28;20024;-67
2022/04/02 01:53:17;;;;;;;1.73;1.00;;;;;;;;;;5110674;28;20023;-68
2022/04/02 01:55:43;;;;;;;4.25;1.00;;;;;;;;;;5110493;28;20452;-72
2022/04/02 01:58:08;;;;;;;1.05;0.80;;;;;;;;;;5110562;28;20518;-70
2022/04/02 02:00:34;;;;;;;1.30;0.95;;;;;;;;;;5110823;28;20348;-72
2022/04/02 02:02:59;;;;;;;2.22;0.95;;;;;;;;;;5110222;28;20077;-71
2022/04/02 02:05:26;;;;;;;1.63;0.98;;;;;;;;;;5110813;28;20368;-71
2022/04/02 02:07:53;;;;;;;2.90;1.15;;;;;;;;;;5110658;28;20020;-71
2022/04/02 02:10:19;;;;;;;2.45;1.10;;;;;;;;;;5110608;28;20023;-73
2022/04/02 02:12:46;;;;;;;2.63;1.20;;;;;;;;;;5110353;28;20027;-72
2022/04/02 02:15:16;;;;;;;1.92;1.05;;;;;;;;;;5110371;28;20047;-72
2022/04/02 02:17:46;;;;;;;1.52;1.13;;;;;;;;;;5109968;28;20080;-72
2022/04/02 02:20:13;;;;;;;2.80;1.42;;;;;;;;;;5110333;28;20028;-69
2022/04/02 02:22:39;;;;;;;3.63;1.60;;;;;;;;;;5110384;28;20059;-66
2022/04/02 02:25:11;;;;;;;5.20;1.33;;;;;;;;;;5110603;28;20023;-72
2022/04/02 02:27:37;;;;;;;3.78;1.20;;;;;;;;;;5110413;28;20479;-72
2022/04/02 02:30:04;;;;;;;2.75;1.23;;;;;;;;;;5110942;28;20031;-71
2022/04/02 02:32:36;;;;;;;1.75;1.05;;;;;;;;;;5110353;28;20399;-74
2022/04/02 02:37:50;;;;;;;1.67;1.10;;;;;;;;;;5110360;28;20309;-73
2022/04/02 02:40:16;;;;;;;2.20;1.40;;;;;;;;;;5110586;28;20027;-73
2022/04/02 02:42:41;;;;;;;3.60;1.58;;;;;;;;;;5110261;28;20055;-72
2022/04/02 02:45:07;;;;;;;2.28;1.15;;;;;;;;;;5110216;28;20111;-67
2022/04/02 02:47:33;;;;;;;2.53;1.30;;;;;;;;;;5109185;28;20077;-72
2022/04/02 02:50:00;;;;;;;1.90;1.23;;;;;;;;;;5110737;28;20015;-67
2022/04/02 02:52:26;;;;;;;1.90;1.30;;;;;;;;;;5110712;28;20032;-67
2022/04/02 02:54:52;;;;;;;2.75;1.10;;;;;;;;;;5110236;28;20483;-71
2022/04/02 02:57:17;;;;;;;2.42;1.20;;;;;;;;;;5110738;28;20030;-72
2022/04/02 02:59:42;;;;;;;2.45;1.23;;;;;;;;;;5110684;28;20027;-72
2022/04/02 03:02:11;;;;;;;3.67;1.40;;;;;;;;;;5110345;28;20012;-72
2022/04/02 03:04:37;;;;;;;2.20;1.30;;;;;;;;;;5109796;28;20051;-71
2022/04/02 03:07:02;;;;;;;2.15;1.30;;;;;;;;;;5111108;28;20020;-74
2022/04/02 03:09:28;;;;;;;1.77;1.30;;;;;;;;;;5110283;28;20023;-70
2022/04/02 03:11:54;;;;;;;2.50;1.48;;;;;;;;;;5110349;28;20282;-72
2022/04/02 03:14:19;;;;;;;2.08;1.25;;;;;;;;;;5109869;28;20077;-72
2022/04/02 03:16:45;;;;;;;2.38;1.27;;;;;;;;;;5109972;28;20032;-72
2022/04/02 03:19:11;;;;;;;2.22;1.42;;;;;;;;;;5110049;28;20050;-73
2022/04/02 03:21:37;;;;;;;4.05;1.73;;;;;;;;;;5109775;28;20421;-74
2022/04/02 03:24:02;;;;;;;2.65;1.50;;;;;;;;;;5109472;28;20080;-72
2022/04/02 03:26:28;;;;;;;1.80;1.27;;;;;;;;;;5109827;28;20521;-76
2022/04/02 03:28:53;;;;;;;1.60;1.17;;;;;;;;;;5109840;28;20114;-72
2022/04/02 03:31:19;;;;;;;2.85;1.65;;;;;;;;;;5113311;28;20053;-72
2022/04/02 03:33:45;;;;;;;2.42;1.52;;;;;;;;;;5113361;28;20031;-72
2022/04/02 03:36:10;;;;;;;2.08;1.48;;;;;;;;;;5113299;28;20502;-72
2022/04/02 03:38:39;;;;;;;1.80;1.17;;;;;;;;;;5113165;28;20028;-72
2022/04/02 03:41:04;;;;;;;2.35;1.40;;;;;;;;;;5113546;28;20024;-72
2022/04/02 03:43:30;;;;;;;3.13;1.50;;;;;;;;;;5113353;28;20030;-72
2022/04/02 03:47:08;;;;;;;2.40;1.40;;;;;;;;;;5113336;28;20419;-70
2022/04/02 03:48:42;;;;;;;1.77;1.17;;;;;;;;;;5113124;28;20111;-66
2022/04/02 03:51:07;;;;;;;2.78;1.30;;;;;;;;;;5113237;28;20108;-67
2022/04/02 03:53:33;;;;;;;3.10;1.60;;;;;;;;;;5112776;28;20110;-71
2022/04/02 03:55:58;;;;;;;2.20;1.38;;;;;;;;;;5112883;27;20027;-70
2022/04/02 03:58:24;;;;;;;1.80;1.27;;;;;;;;;;5112927;28;20019;-66
2022/04/02 04:00:50;;;;;;;2.97;1.30;;;;;;;;;;5113204;28;20452;-67
2022/04/02 04:03:16;;;;;;;2.15;1.10;;;;;;;;;;5112419;28;20483;-69
2022/04/02 04:05:42;;;;;;;1.77;1.27;;;;;;;;;;5113163;28;20111;-74
2022/04/02 04:08:08;;;;;;;2.10;1.20;;;;;;;;;;5112941;28;20032;-72
2022/04/02 04:10:33;;;;;;;2.33;1.20;;;;;;;;;;5112815;28;20407;-73
2022/04/02 04:12:59;;;;;;;1.95;1.20;;;;;;;;;;5112657;28;20463;-70
2022/04/02 04:15:24;;;;;;;2.13;1.30;;;;;;;;;;5112331;28;20038;-73
2022/04/02 04:17:50;;;;;;;1.80;1.30;;;;;;;;;;5112379;28;20032;-73
2022/04/02 04:20:15;;;;;;;1.60;1.23;;;;;;;;;;5112664;28;20193;-74
2022/04/02 04:22:41;;;;;;;2.03;1.30;;;;;;;;;;5112557;28;20024;-72
2022/04/02 04:25:10;;;;;;;2.28;1.10;;;;;;;;;;5112390;28;20034;-68
2022/04/02 04:27:36;;;;;;;2.75;1.20;;;;;;;;;;5112416;28;20053;-72
2022/04/02 04:30:03;;;;;;;1.27;1.00;;;;;;;;;;5112770;28;20024;-72
2022/04/02 04:32:28;;;;;;;3.03;1.20;;;;;;;;;;5112172;28;20028;-70
2022/04/02 04:34:53;;;;;;;1.40;1.10;;;;;;;;;;5111878;27;20031;-73
2022/04/02 04:37:19;;;;;;;1.55;1.10;;;;;;;;;;5112180;28;20020;-72
2022/04/02 04:39:44;;;;;;;2.10;1.25;;;;;;;;;;5112172;28;20028;-73
2022/04/02 04:42:10;;;;;;;1.75;1.20;;;;;;;;;;5111836;28;20436;-67
2022/04/02 04:44:35;;;;;;;2.20;1.20;;;;;;;;;;5111911;28;20079;-69
2022/04/02 04:47:01;;;;;;;2.05;1.10;;;;;;;;;;5112045;28;20023;-67
2022/04/02 04:49:27;;;;;;;2.17;1.20;;;;;;;;;;5111898;28;20027;-69
2022/04/02 04:51:52;;;;;;;1.92;1.20;;;;;;;;;;5111932;28;20039;-72
2022/04/02 04:54:18;;;;;;;2.28;1.20;;;;;;;;;;5111491;28;20076;-73
2022/04/02 04:56:43;;;;;;;1.08;0.85;;;;;;;;;;5111864;28;20266;-74
2022/04/02 04:59:09;;;;;;;1.80;1.23;;;;;;;;;;5112347;27;20055;-75
2022/04/02 05:01:35;;;;;;;1.75;1.10;;;;;;;;;;5111765;28;20028;-74
2022/04/02 05:04:00;;;;;;;2.47;1.15;;;;;;;;;;5111510;28;20317;-74
2022/04/02 05:06:27;;;;;;;1.40;0.90;;;;;;;;;;5111886;28;20036;-72
2022/04/02 05:08:53;;;;;;;1.55;1.00;;;;;;;;;;5111381;28;20015;-73
2022/04/02 05:11:18;;;;;;;1.45;1.00;;;;;;;;;;5111650;28;20094;-73
2022/04/02 05:13:44;;;;;;;3.15;1.20;;;;;;;;;;5111871;28;20030;-73
2022/04/02 05:16:10;;;;;;;1.40;1.10;;;;;;;;;;5111489;28;20471;-66
2022/04/02 05:18:36;;;;;;;1.60;1.00;;;;;;;;;;5111384;28;20028;-73
2022/04/02 05:21:02;;;;;;;2.13;1.10;;;;;;;;;;5111551;28;20023;-71
2022/04/02 05:23:28;;;;;;;2.25;1.00;;;;;;;;;;5111053;28;20107;-66
2022/04/02 05:25:55;;;;;;;1.63;1.10;;;;;;;;;;5111126;28;20110;-66
2022/04/02 05:28:20;;;;;;;1.40;0.93;;;;;;;;;;5111221;28;20020;-69
2022/04/02 05:30:46;;;;;;;1.17;0.90;;;;;;;;;;5111230;28;20095;-68
2022/04/02 05:33:11;;;;;;;1.52;1.00;;;;;;;;;;5111302;28;20030;-72
2022/04/02 05:35:37;;;;;;;1.45;1.02;;;;;;;;;;5110839;28;20040;-70
2022/04/02 05:38:02;;;;;;;1.92;1.10;;;;;;;;;;5111106;28;20096;-71
2022/04/02 05:40:28;;;;;;;1.67;1.10;;;;;;;;;;5110916;28;20015;-67
2022/04/02 05:42:53;;;;;;;2.13;1.00;;;;;;;;;;5110979;28;20031;-73
2022/04/02 05:45:19;;;;;;;1.42;1.00;;;;;;;;;;5110567;28;20027;-70
2022/04/02 05:47:50;;;;;;;1.77;1.00;;;;;;;;;;5111219;28;20051;-68
2022/04/02 05:50:17;;;;;;;3.20;1.75;;;;;;;;;;5110848;28;20028;-67
2022/04/02 05:52:43;;;;;;;1.83;1.20;;;;;;;;;;5110009;28;20301;-67
2022/04/02 05:55:13;;;;;;;2.47;1.50;;;;;;;;;;5110575;28;20257;-72
2022/04/02 05:57:42;;;;;;;3.10;1.88;;;;;;;;;;5110657;28;20092;-70
2022/04/02 06:00:10;;;;;;;2.38;1.40;;;;;;;;;;5110684;28;20270;-73
2022/04/02 06:02:37;;;;;;;2.63;1.48;;;;;;;;;;5110513;28;20050;-71
2022/04/02 06:05:03;;;;;;;1.60;1.10;;;;;;;;;;5110689;28;20039;-66
2022/04/02 06:07:30;;;;;;;2.00;1.20;;;;;;;;;;5110555;28;20024;-68
2022/04/02 06:09:56;;;;;;;1.92;1.08;;;;;;;;;;5110676;28;20038;-74
2022/04/02 06:12:21;;;;;;;1.60;1.00;;;;;;;;;;5110403;28;20028;-70
2022/04/02 06:14:47;;;;;;;1.75;0.95;;;;;;;;;;5110220;28;20172;-71
2022/04/02 06:17:12;;;;;;;1.42;1.00;;;;;;;;;;5109113;28;20044;-73
2022/04/02 06:19:37;;;;;;;3.67;1.10;;;;;;;;;;5110364;28;20027;-71
2022/04/02 06:22:06;;;;;;;2.97;1.10;;;;;;;;;;5110531;28;20015;-71
2022/04/02 06:24:33;;;;;;;2.38;0.75;;;;;;;;;;5110483;28;20129;-70
2022/04/02 06:26:58;;;;;;;1.85;0.95;;;;;;;;;;5110876;28;20068;-69
2022/04/02 06:29:24;;;;;;;2.00;1.02;;;;;;;;;;5110376;28;20019;-70
2022/04/02 06:31:49;;;;;;;3.33;1.10;;;;;;;;;;5110097;28;20451;-70
2022/04/02 06:34:15;;;;;;;1.63;1.02;;;;;;;;;;5110024;28;20016;-66
2022/04/02 06:36:40;;;;;;;2.60;1.20;;;;;;;;;;5110420;28;20503;-71
2022/04/02 06:39:06;;;;;;;1.45;1.05;;;;;;;;;;5110271;28;20044;-71
2022/04/02 06:41:31;;;;;;;2.63;1.20;;;;;;;;;;5110260;28;20074;-71
2022/04/02 06:43:57;;;;;;;1.85;1.20;;;;;;;;;;5110291;28;20043;-70
2022/04/02 06:46:22;;;;;;;2.00;1.30;;;;;;;;;;5110078;28;20106;-75
2022/04/02 06:48:47;;;;;;;3.00;1.38;;;;;;;;;;5110118;28;20024;-71
2022/04/02 06:51:13;;;;;;;5.07;1.52;;;;;;;;;;5110448;28;20051;-67
2022/04/02 06:53:39;;;;;;;4.50;1.50;;;;;;;;;;5110083;28;20091;-71
2022/04/02 06:56:04;;;;;;;3.58;1.67;;;;;;;;;;5109827;28;20064;-73
2022/04/02 06:58:41;;;;;;;3.08;1.45;;;;;;;;;;5110311;28;20126;-70
2022/04/02 07:01:06;;;;;;;5.28;1.80;;;;;;;;;;5110031;28;20027;-68
2022/04/02 07:03:33;;;;;;;5.88;1.40;;;;;;;;;;5110827;28;20042;-66
2022/04/02 07:05:59;;;;;;;3.80;1.40;;;;;;;;;;5113949;28;20055;-71
2022/04/02 07:08:24;;;;;;;2.90;1.33;;;;;;;;;;5113646;28;20039;-72
2022/04/02 07:10:50;;;;;;;3.03;1.50;;;;;;;;;;5113968;28;20478;-72
2022/04/02 07:13:15;;;;;;;2.15;1.10;;;;;;;;;;5114012;28;20024;-74
2022/04/02 07:15:41;;;;;;;5.03;1.30;;;;;;;;;;5113720;28;20035;-71
2022/04/02 07:18:08;;;;;;;2.75;1.20;;;;;;;;;;5113809;28;20023;-74
2022/04/02 07:20:36;;;;;;;3.78;1.10;;;;;;;;;;5113483;28;20019;-73
2022/04/02 07:23:02;;;;;;;2.00;0.90;;;;;;;;;;5113686;28;20038;-70
2022/04/02 07:25:31;;;;;;;3.20;1.02;;;;;;;;;;5113269;28;20019;-76
2022/04/02 07:27:58;;;;;;;2.50;1.20;;;;;;;;;;5113500;28;20104;-72
2022/04/02 07:30:24;;;;;;;1.88;1.00;;;;;;;;;;5113463;28;20080;-70
2022/04/02 07:32:51;;;;;;;1.83;0.90;;;;;;;;;;5113434;28;20022;-72
2022/04/02 07:35:16;;;;;;;2.35;0.80;;;;;;;;;;5113232;28;20035;-72
2022/04/02 07:37:57;;;;;;;2.25;1.00;;;;;;;;;;5113131;28;20375;-73
2022/04/02 07:40:49;;;;;;;2.92;1.20;;;;;;;;;;5113270;28;20043;-73
2022/04/02 07:43:25;;;;;;;2.03;0.90;;;;;;;;;;5113399;28;20039;-72
2022/04/02 07:46:04;;;;;;;4.20;1.00;;;;;;;;;;5113496;28;20030;-71
2022/04/02 07:48:31;;;;;;;2.22;1.00;;;;;;;;;;5113356;28;20020;-72
2022/04/02 07:50:56;;;;;;;2.60;1.00;;;;;;;;;;5113211;28;20144;-74
2022/04/02 07:53:23;;;;;;;1.90;1.00;;;;;;;;;;5112892;28;20118;-75
2022/04/02 07:56:02;;;;;;;2.28;1.00;;;;;;;;;;5112691;28;20032;-74
2022/04/02 07:58:31;;;;;;;1.55;0.98;;;;;;;;;;5112688;28;20624;-73
2022/04/02 08:01:01;;;;;;;2.45;1.10;;;;;;;;;;5112831;28;20039;-71
2022/04/02 08:03:28;;;;;;;;;;;;;;;;;;5113177;28;20072;-70
2022/04/02 08:05:55;;;;;;;1.83;0.90;;;;;;;;;;5112836;28;19912;-73
2022/04/02 08:08:23;;;;;;;2.22;1.00;;;;;;;;;;5112631;28;20019;-73
2022/04/02 08:10:51;;;;;;;4.10;1.10;;;;;;;;;;5112884;28;20069;-75
2022/04/02 08:13:18;;;;;;;7.05;3.72;;;;;;;;;;5112690;28;20115;-74
2022/04/02 08:15:43;;;;;;;2.10;1.00;;;;;;;;;;5111405;28;20515;-71
2022/04/02 08:18:09;;;;;;;5.53;2.33;;;;;;;;;;5112457;28;20032;-72
2022/04/02 08:20:36;;;;;;;2.17;1.08;;;;;;;;;;5112474;28;20104;-73
2022/04/02 08:23:01;;;;;;;2.97;1.50;;;;;;;;;;5112466;28;20183;-72
2022/04/02 08:25:27;;;;;;;3.33;1.10;;;;;;;;;;5112181;28;20020;-72
2022/04/02 08:27:53;;;;;;;2.92;1.10;;;;;;;;;;5112302;28;20098;-73
2022/04/02 08:30:43;;;;;;;3.30;0.93;;;;;;;;;;5112174;28;20108;-72
2022/04/02 08:33:43;;;;;;;1.63;0.80;;;;;;;;;;5112099;28;20023;-71
2022/04/02 08:37:02;;;;;;;2.45;1.10;;;;;;;;;;5111808;28;20475;-74
2022/04/02 08:40:15;;;;;;;3.53;0.90;;;;;;;;;;5099037;28;20039;-73
2022/04/02 08:42:59;;;;;;;6.13;1.10;;;;;;;;;;5112334;28;20198;-75
2022/04/02 08:45:32;;;;;;;2.70;1.13;;;;;;;;;;5111852;28;20098;-74
2022/04/02 08:48:17;;;;;;;2.13;0.77;;;;;;;;;;5112297;28;20040;-73
2022/04/02 08:51:11;;;;;;;2.60;1.17;;;;;;;;;;5111998;28;20028;-71
2022/04/02 08:54:01;;;;;;;3.83;1.23;;;;;;;;;;5112258;28;20107;-73
2022/04/02 08:56:29;;;;;;;2.38;1.30;;;;;;;;;;5111626;28;20429;-68
2022/04/02 08:59:01;;;;;;;2.10;1.00;;;;;;;;;;5111844;28;20034;-67
2022/04/02 09:01:33;;;;;;;2.78;1.27;;;;;;;;;;5111893;28;20069;-71
2022/04/02 09:04:17;;;;;;;2.40;1.20;;;;;;;;;;5111570;28;20044;-70
2022/04/02 09:07:03;;;;;;;3.17;1.42;;;;;;;;;;5111391;28;20034;-70
2022/04/02 09:09:55;;;;;;;2.10;1.20;;;;;;;;;;5111312;28;20046;-74
2022/04/02 09:12:29;;;;;;;2.65;1.20;;;;;;;;;;5111777;28;20077;-74
2022/04/02 09:15:24;;;;;;;3.75;1.52;;;;;;;;;;5111427;28;20146;-68
2022/04/02 09:18:12;;;;;;;1.80;0.90;;;;;;;;;;5111573;27;20054;-72
2022/04/02 09:20:57;;;;;;;3.00;1.20;;;;;;;;;;5111034;28;20030;-71
2022/04/02 09:23:42;;;;;;;1.55;0.85;;;;;;;;;;5111092;28;20537;-72
2022/04/02 09:26:29;;;;;;;2.08;1.00;;;;;;;;;;5110937;28;20015;-72
2022/04/02 09:29:15;;;;;;;1.10;0.70;;;;;;;;;;5110063;28;20186;-73
2022/04/02 09:32:11;;;;;;;2.30;1.00;;;;;;;;;;5111283;28;20015;-72
2022/04/02 09:34:58;;;;;;;4.80;0.88;;;;;;;;;;5111027;28;20059;-68
2022/04/02 09:37:33;;;;;;;2.20;0.68;;;;;;;;;;5111076;28;20370;-71
2022/04/02 09:40:06;;;;;;;0.98;0.70;;;;;;;;;;5110952;28;20133;-73
2022/04/02 09:42:51;;;;;;;2.67;0.60;;;;;;;;;;5110885;28;20106;-74
2022/04/02 09:45:18;;;;;;;1.80;0.60;;;;;;;;;;5110997;28;20380;-73
2022/04/02 09:48:10;;;;;;;2.05;0.70;;;;;;;;;;5110890;28;20035;-71
2022/04/02 09:50:36;;;;;;;2.30;0.60;;;;;;;;;;5110744;28;20105;-72
2022/04/02 09:53:11;;;;;;;2.03;0.60;;;;;;;;;;5110782;28;20051;-72
2022/04/02 09:56:00;;;;;;;1.85;0.65;;;;;;;;;;5110381;28;20478;-71
2022/04/02 09:58:57;;;;;;;2.72;0.77;;;;;;;;;;5110702;28;20277;-71
2022/04/02 10:01:29;;;;;;;1.05;0.70;;;;;;;;;;5110625;28;20031;-71
2022/04/02 10:04:22;;;;;;;1.65;0.60;;;;;;;;;;5110668;28;20541;-72
2022/04/02 10:06:55;;;;;;;3.75;0.75;;;;;;;;;;5110425;28;20051;-74
2022/04/02 10:09:22;;;;;;;1.48;0.63;;;;;;;;;;5110409;28;20044;-72
2022/04/02 10:11:58;;;;;;;1.90;0.80;;;;;;;;;;5110484;28;20019;-73
2022/04/02 10:14:28;;;;;;;2.47;0.68;;;;;;;;;;5108731;28;20122;-71
2022/04/02 10:17:06;;;;;;;1.55;0.80;;;;;;;;;;5110000;28;20027;-73
2022/04/02 10:19:36;;;;;;;0.82;0.50;;;;;;;;;;5110541;28;20482;-72
2022/04/02 10:22:07;;;;;;;0.80;0.40;;;;;;;;;;5110361;28;20036;-73
2022/04/02 10:24:48;;;;;;;2.63;0.70;;;;;;;;;;5110128;28;20032;-73
2022/04/02 10:27:30;;;;;;;0.80;0.60;;;;;;;;;;5110413;28;20039;-72
2022/04/02 10:30:18;;;;;;;1.92;0.55;;;;;;;;;;5110248;28;20038;-72
2022/04/02 10:33:29;;;;;;;1.48;0.60;;;;;;;;;;5110057;28;20027;-75
2022/04/02 10:35:56;;;;;;;1.33;0.55;;;;;;;;;;5107382;28;20071;-72
2022/04/02 10:38:34;;;;;;;2.05;0.50;;;;;;;;;;5110730;28;20042;-74
2022/04/02 10:41:19;;;;;;;0.95;0.47;;;;;;;;;;5114475;28;20115;-73
2022/04/02 10:44:00;;;;;;;1.50;0.70;;;;;;;;;;5114459;28;20031;-74
2022/04/02 10:46:26;;;;;;;1.75;0.50;;;;;;;;;;5114238;28;20043;-71
2022/04/02 10:49:00;;;;;;;1.50;0.50;;;;;;;;;;5114202;28;20016;-72
2022/04/02 10:51:28;;;;;;;2.78;0.70;;;;;;;;;;5114193;28;20047;-71
2022/04/02 10:54:02;;;;;;;1.35;0.70;;;;;;;;;;5114152;28;20406;-73
2022/04/02 10:56:33;;;;;;;1.02;0.70;;;;;;;;;;5114335;28;20130;-72
2022/04/02 10:59:00;;;;;;;1.10;0.50;;;;;;;;;;5114167;27;20032;-70
2022/04/02 11:01:26;;;;;;;4.10;0.90;;;;;;;;;;5114192;28;20027;-72
2022/04/02 11:03:56;;;;;;;2.55;0.70;;;;;;;;;;5113740;28;20120;-73
2022/04/02 11:06:48;;;;;;;2.45;0.80;;;;;;;;;;5113786;28;20036;-72
2022/04/02 11:09:28;;;;;;;1.10;0.60;;;;;;;;;;5113787;28;20039;-72
2022/04/02 11:12:13;;;;;;;2.00;0.68;;;;;;;;;;5114041;28;20023;-73
2022/04/02 11:14:44;;;;;;;1.65;0.60;;;;;;;;;;5114012;28;20031;-72
2022/04/02 11:17:29;;;;;;;1.77;0.60;;;;;;;;;;5113952;28;20210;-71
2022/04/02 11:20:10;;;;;;;4.45;0.80;;;;;;;;;;5114000;28;20032;-71
2022/04/02 11:22:57;;;;;;;2.97;0.70;;;;;;;;;;5113939;28;20376;-73
2022/04/02 11:25:28;;;;;;;1.85;0.60;;;;;;;;;;5113736;28;20506;-72
2022/04/02 11:27:58;;;;;;;1.70;0.70;;;;;;;;;;5113463;28;20035;-74
2022/04/02 11:30:30;;;;;;;2.87;0.70;;;;;;;;;;5113600;28;20145;-72
2022/04/02 11:33:07;;;;;;;1.83;0.45;;;;;;;;;;5113507;28;20031;-73
2022/04/02 11:35:51;;;;;;;2.45;0.75;;;;;;;;;;5113330;28;20399;-72
2022/04/02 11:38:20;;;;;;;2.45;0.80;;;;;;;;;;5113267;28;20023;-73
2022/04/02 11:41:02;;;;;;;1.27;0.65;;;;;;;;;;5113182;28;20383;-72
2022/04/02 11:43:37;;;;;;;1.50;0.60;;;;;;;;;;5113156;28;20032;-73
2022/04/02 11:46:05;;;;;;;1.58;0.50;;;;;;;;;;5113010;28;20032;-73
2022/04/02 11:48:33;;;;;;;1.58;0.88;;;;;;;;;;5113367;28;20647;-73
2022/04/02 11:51:26;;;;;;;3.10;0.70;;;;;;;;;;5112082;28;20483;-73
2022/04/02 11:53:52;;;;;;;2.75;0.70;;;;;;;;;;5112971;28;20027;-73
2022/04/02 11:56:29;;;;;;;1.65;0.63;;;;;;;;;;5113015;28;20055;-73
2022/04/02 11:58:58;;;;;;;1.38;0.57;;;;;;;;;;5113106;28;20563;-74
2022/04/02 12:01:24;;;;;;;2.20;0.90;;;;;;;;;;5112976;28;20147;-72
2022/04/02 12:04:13;;;;;;;2.05;0.70;;;;;;;;;;5112807;28;20038;-72
2022/04/02 12:06:40;;;;;;;3.10;0.70;;;;;;;;;;5113455;28;20098;-72
2022/04/02 12:09:15;;;;;;;2.60;0.60;;;;;;;;;;5112768;28;20047;-72
2022/04/02 12:11:43;;;;;;;3.45;0.80;;;;;;;;;;5112709;28;20031;-73
2022/04/02 12:14:10;;;;;;;1.23;0.60;;;;;;;;;;5112623;28;20047;-73
2022/04/02 12:16:38;;;;;;;3.33;0.70;;;;;;;;;;5112478;28;20028;-73
2022/04/02 12:19:05;;;;;;;1.17;0.60;;;;;;;;;;5112600;28;20034;-73
2022/04/02 12:21:36;;;;;;;2.42;0.70;;;;;;;;;;5112555;28;20652;-72
2022/04/02 12:24:02;;;;;;;;;;;;;;;;;;5112960;28;20506;-73
2022/04/02 12:26:28;;;;;;;2.65;0.60;;;;;;;;;;5112403;28;19912;-74
2022/04/02 12:28:59;;;;;;;2.15;0.50;;;;;;;;;;5112429;28;20114;-66
2022/04/02 12:31:30;;;;;;;1.77;0.60;;;;;;;;;;5112281;28;20019;-67
2022/04/02 12:33:57;;;;;;;2.80;0.55;;;;;;;;;;5112301;27;20108;-71
2022/04/02 12:36:34;;;;;;;2.00;0.50;;;;;;;;;;5112239;28;20055;-71
2022/04/02 12:39:03;;;;;;;1.55;0.65;;;;;;;;;;5112257;28;20027;-73
2022/04/02 12:41:29;;;;;;;0.60;0.38;;;;;;;;;;5111061;28;20019;-69
2022/04/02 12:44:03;;;;;;;3.58;0.80;;;;;;;;;;5112144;28;20482;-71
2022/04/02 12:46:29;;;;;;;3.45;0.70;;;;;;;;;;5111896;28;20028;-69
2022/04/02 12:48:56;;;;;;;1.88;0.63;;;;;;;;;;5112020;28;20048;-72
2022/04/02 12:51:25;;;;;;;3.17;0.73;;;;;;;;;;5112066;28;20032;-71
2022/04/02 12:53:59;;;;;;;3.83;0.85;;;;;;;;;;5111811;28;20062;-71
2022/04/02 12:56:30;;;;;;;5.28;0.80;;;;;;;;;;5112000;28;20053;-71
2022/04/02 12:58:57;;;;;;;4.82;0.90;;;;;;;;;;5112193;28;20074;-70
2022/04/02 13:01:27;;;;;;;4.25;1.00;;;;;;;;;;5111721;28;20032;-69
2022/04/02 13:04:06;;;;;;;7.25;1.15;;;;;;;;;;5111747;28;20046;-72
2022/04/02 13:06:34;;;;;;;6.88;1.00;;;;;;;;;;5111419;28;20019;-71
2022/04/02 13:09:01;;;;;;;7.03;1.20;;;;;;;;;;5111350;28;20095;-73
2022/04/02 13:11:45;;;;;;;4.75;0.90;;;;;;;;;;5111721;28;20020;-72
2022/04/02 13:14:19;;;;;;;6.03;0.95;;;;;;;;;;5111423;28;20024;-70
2022/04/02 13:16:47;;;;;;;6.65;1.10;;;;;;;;;;5111360;28;20073;-72
2022/04/02 13:22:15;;;;;;;7.75;1.20;;;;;;;;;;5111466;28;20035;-73
2022/04/02 13:24:49;;;;;;;6.63;1.45;;;;;;;;;;5111129;28;20043;-72
2022/04/02 13:27:24;;;;;;;8.57;1.40;;;;;;;;;;5110913;28;20062;-74
2022/04/02 13:30:06;;;;;;;5.00;0.90;;;;;;;;;;5111395;28;20426;-70
2022/04/02 13:32:38;;;;;;;7.40;1.23;;;;;;;;;;5111196;28;20061;-72
2022/04/02 13:35:25;;;;;;;6.80;0.98;;;;;;;;;;5111127;28;20023;-72
2022/04/02 13:38:13;;;;;;;4.38;0.90;;;;;;;;;;5110806;28;20111;-71
2022/04/02 13:40:39;;;;;;;5.93;1.17;;;;;;;;;;5111152;28;20528;-72
2022/04/02 13:43:08;;;;;;;2.83;0.73;;;;;;;;;;5110874;28;20051;-70
2022/04/02 13:45:42;;;;;;;5.07;1.10;;;;;;;;;;5110916;28;20016;-67
2022/04/02 13:48:11;;;;;;;6.63;1.00;;;;;;;;;;5110893;28;20043;-69
2022/04/02 13:50:39;;;;;;;2.95;0.80;;;;;;;;;;5110905;28;20023;-72
2022/04/02 13:53:08;;;;;;;6.13;0.80;;;;;;;;;;5110980;28;20041;-70
2022/04/02 13:55:36;;;;;;;6.60;1.00;;;;;;;;;;5110576;28;20032;-71
2022/04/02 13:58:05;;;;;;;4.97;0.85;;;;;;;;;;5110469;28;20057;-71
2022/04/02 14:00:42;;;;;;;4.70;0.93;;;;;;;;;;5110800;28;20023;-69
2022/04/02 14:03:10;;;;;;;7.20;1.10;;;;;;;;;;5110493;28;20047;-72
2022/04/02 14:05:38;;;;;;;4.70;0.80;;;;;;;;;;5110917;28;20027;-73
2022/04/02 14:08:12;;;;;;;3.08;0.80;;;;;;;;;;5110407;28;20107;-72
2022/04/02 14:10:48;;;;;;;6.00;1.05;;;;;;;;;;5110694;28;20020;-68
2022/04/02 14:13:19;;;;;;;4.40;0.90;;;;;;;;;;5109894;28;20479;-70
2022/04/02 14:15:50;;;;;;;7.03;1.00;;;;;;;;;;5110312;28;20030;-71
2022/04/02 14:18:22;;;;;;;3.72;0.82;;;;;;;;;;5110207;28;20368;-71
2022/04/02 14:20:58;;;;;;;6.05;0.90;;;;;;;;;;5110293;28;20461;-70
2022/04/02 14:23:35;;;;;;;4.28;0.95;;;;;;;;;;5110176;28;20032;-67
2022/04/02 14:26:25;;;;;;;3.40;1.00;;;;;;;;;;5110410;28;20034;-73
2022/04/02 14:29:28;;;;;;;3.70;0.90;;;;;;;;;;5109994;28;20027;-71
2022/04/02 14:32:35;;;;;;;4.75;0.90;;;;;;;;;;5110186;28;20035;-72
2022/04/02 14:35:09;;;;;;;3.45;0.80;;;;;;;;;;5099071;28;20055;-71
2022/04/02 14:38:12;;;;;;;6.22;0.90;;;;;;;;;;5110238;28;20076;-72
2022/04/02 14:40:44;;;;;;;3.92;0.82;;;;;;;;;;5110257;28;20024;-71
2022/04/02 14:43:48;;;;;;;2.95;0.90;;;;;;;;;;5110311;28;20031;-73
2022/04/02 14:46:48;;;;;;;2.75;0.60;;;;;;;;;;5109697;28;20406;-73
2022/04/02 14:49:23;;;;;;;4.05;0.90;;;;;;;;;;5109805;28;20030;-72
2022/04/02 14:52:07;;;;;;;3.47;0.88;;;;;;;;;;5110069;28;20042;-70
2022/04/02 14:54:50;;;;;;;2.08;0.80;;;;;;;;;;5109925;28;20510;-68
2022/04/02 14:58:01;;;;;;;3.47;1.38;;;;;;;;;;5109899;28;20034;-71
2022/04/02 15:00:41;;;;;;;2.78;0.90;;;;;;;;;;5110140;28;20115;-72
2022/04/02 15:03:43;;;;;;;4.78;0.88;;;;;;;;;;5110309;28;20047;-68
2022/04/02 15:06:30;;;;;;;5.45;1.42;;;;;;;;;;5109847;28;20024;-70
2022/04/02 15:09:06;;;;;;;2.75;0.90;;;;;;;;;;5109730;28;20309;-72
2022/04/02 15:11:42;;;;;;;2.78;0.80;;;;;;;;;;5110054;28;20026;-72
2022/04/02 15:14:14;;;;;;;2.65;0.82;;;;;;;;;;5110069;28;20023;-72
2022/04/02 15:16:41;;;;;;;3.08;0.80;;;;;;;;;;5110102;28;20055;-73